sensor_id;sensor_type;location;lat;lon;timestamp;temperature;humidity
16160;DHT22;8185;57.818;15.224;2023-12-20T00:02:18;3.90;99.90
16160;DHT22;8185;57.818;15.224;2023-12-20T00:04:46;3.90;99.90
16160;DHT22;8185;57.818;15.224;2023-12-20T00:07:13;3.90;99.90
16160;DHT22;8185;57.818;15.224;2023-12-20T00:09:40;3.90;99.90
16160;DHT22;8185;57.818;15.224;2023-12-20T00:12:10;3.90;99.90
16160;DHT22;8185;57.818;15.224;2023-12-20T00:14:38;3.90;99.90
16160;DHT22;8185;57.818;15.224;2023-12-20T00:17:05;3.90;99.90
16160;DHT22;8185;57.818;15.224;2023-12-20T00:19:32;3.80;99.90
16160;DHT22;8185;57.818;15.224;2023-12-20T00:21:59;3.80;99.90
16160;DHT22;8185;57.818;15.224;2023-12-20T00:24:27;3.80;99.90
16160;DHT22;8185;57.818;15.224;2023-12-20T00:26:54;3.90;99.90
16160;DHT22;8185;57.818;15.224;2023-12-20T00:29:23;3.90;99.90
16160;DHT22;8185;57.818;15.224;2023-12-20T00:31:50;4.00;99.90
16160;DHT22;8185;57.818;15.224;2023-12-20T00:34:17;3.90;99.90
16160;DHT22;8185;57.818;15.224;2023-12-20T00:36:44;3.90;99.90
16160;DHT22;8185;57.818;15.224;2023-12-20T00:39:11;3.80;99.90
16160;DHT22;8185;57.818;15.224;2023-12-20T00:41:39;3.80;99.90
16160;DHT22;8185;57.818;15.224;2023-12-20T00:44:06;3.80;99.90
16160;DHT22;8185;57.818;15.224;2023-12-20T00:46:35;3.80;99.90
16160;DHT22;8185;57.818;15.224;2023-12-20T00:49:02;3.80;99.90
16160;DHT22;8185;57.818;15.224;2023-12-20T00:51:29;3.80;99.90
16160;DHT22;8185;57.818;15.224;2023-12-20T00:53:56;3.80;99.90
16160;DHT22;8185;57.818;15.224;2023-12-20T00:56:24;3.80;99.90
16160;DHT22;8185;57.818;15.224;2023-12-20T00:58:51;3.80;99.90
16160;DHT22;8185;57.818;15.224;2023-12-20T01:01:18;3.80;99.90
16160;DHT22;8185;57.818;15.224;2023-12-20T01:03:47;3.80;99.90
16160;DHT22;8185;57.818;15.224;2023-12-20T01:06:17;3.90;99.90
16160;DHT22;8185;57.818;15.224;2023-12-20T01:08:45;3.80;99.90
16160;DHT22;8185;57.818;15.224;2023-12-20T01:11:12;3.90;99.90
16160;DHT22;8185;57.818;15.224;2023-12-20T01:13:39;3.80;99.90
16160;DHT22;8185;57.818;15.224;2023-12-20T01:16:06;3.90;99.90
16160;DHT22;8185;57.818;15.224;2023-12-20T01:18:36;3.90;99.90
16160;DHT22;8185;57.818;15.224;2023-12-20T01:21:05;3.80;99.90
16160;DHT22;8185;57.818;15.224;2023-12-20T01:23:33;3.80;99.90
16160;DHT22;8185;57.818;15.224;2023-12-20T01:26:00;3.90;99.90
16160;DHT22;8185;57.818;15.224;2023-12-20T01:28:28;3.80;99.90
16160;DHT22;8185;57.818;15.224;2023-12-20T01:30:55;3.80;99.90
16160;DHT22;8185;57.818;15.224;2023-12-20T01:33:22;3.70;99.90
16160;DHT22;8185;57.818;15.224;2023-12-20T01:35:50;3.70;99.90
16160;DHT22;8185;57.818;15.224;2023-12-20T01:38:18;3.80;99.90
16160;DHT22;8185;57.818;15.224;2023-12-20T01:40:45;3.80;99.90
16160;DHT22;8185;57.818;15.224;2023-12-20T01:43:13;3.80;99.90
16160;DHT22;8185;57.818;15.224;2023-12-20T01:45:40;3.70;99.90
16160;DHT22;8185;57.818;15.224;2023-12-20T01:48:08;3.80;99.90
16160;DHT22;8185;57.818;15.224;2023-12-20T01:50:36;3.80;99.90
16160;DHT22;8185;57.818;15.224;2023-12-20T01:53:05;3.80;99.90
16160;DHT22;8185;57.818;15.224;2023-12-20T01:55:38;3.70;99.90
16160;DHT22;8185;57.818;15.224;2023-12-20T01:58:06;3.80;99.90
16160;DHT22;8185;57.818;15.224;2023-12-20T02:00:34;3.80;99.90
16160;DHT22;8185;57.818;15.224;2023-12-20T02:03:01;3.80;99.90
16160;DHT22;8185;57.818;15.224;2023-12-20T02:05:29;3.70;99.90
16160;DHT22;8185;57.818;15.224;2023-12-20T02:07:57;3.70;99.90
16160;DHT22;8185;57.818;15.224;2023-12-20T02:10:24;3.60;99.90
16160;DHT22;8185;57.818;15.224;2023-12-20T02:12:53;3.50;99.90
16160;DHT22;8185;57.818;15.224;2023-12-20T02:15:20;3.40;99.90
16160;DHT22;8185;57.818;15.224;2023-12-20T02:17:48;3.40;99.90
16160;DHT22;8185;57.818;15.224;2023-12-20T02:20:16;3.40;99.90
16160;DHT22;8185;57.818;15.224;2023-12-20T02:22:45;3.30;99.90
16160;DHT22;8185;57.818;15.224;2023-12-20T02:25:12;3.20;99.90
16160;DHT22;8185;57.818;15.224;2023-12-20T02:27:40;3.10;99.90
16160;DHT22;8185;57.818;15.224;2023-12-20T02:30:07;3.00;99.90
16160;DHT22;8185;57.818;15.224;2023-12-20T02:32:36;2.90;99.90
16160;DHT22;8185;57.818;15.224;2023-12-20T02:35:03;2.80;99.90
16160;DHT22;8185;57.818;15.224;2023-12-20T02:37:30;2.80;99.90
16160;DHT22;8185;57.818;15.224;2023-12-20T02:40:01;2.90;99.90
16160;DHT22;8185;57.818;15.224;2023-12-20T02:42:30;2.90;99.90
16160;DHT22;8185;57.818;15.224;2023-12-20T02:44:57;3.00;99.90
16160;DHT22;8185;57.818;15.224;2023-12-20T02:47:24;3.00;99.90
16160;DHT22;8185;57.818;15.224;2023-12-20T02:49:51;3.10;99.90
16160;DHT22;8185;57.818;15.224;2023-12-20T02:52:19;3.10;99.90
16160;DHT22;8185;57.818;15.224;2023-12-20T02:54:47;3.20;99.90
16160;DHT22;8185;57.818;15.224;2023-12-20T02:57:16;3.20;99.90
16160;DHT22;8185;57.818;15.224;2023-12-20T02:59:43;3.20;99.90
16160;DHT22;8185;57.818;15.224;2023-12-20T03:02:10;3.30;99.90
16160;DHT22;8185;57.818;15.224;2023-12-20T03:04:38;3.30;99.90
16160;DHT22;8185;57.818;15.224;2023-12-20T03:07:05;3.30;99.90
16160;DHT22;8185;57.818;15.224;2023-12-20T03:09:32;3.30;99.90
16160;DHT22;8185;57.818;15.224;2023-12-20T03:11:59;3.30;99.90
16160;DHT22;8185;57.818;15.224;2023-12-20T03:14:28;3.30;99.90
16160;DHT22;8185;57.818;15.224;2023-12-20T03:16:55;3.30;99.90
16160;DHT22;8185;57.818;15.224;2023-12-20T03:19:22;3.30;99.90
16160;DHT22;8185;57.818;15.224;2023-12-20T03:21:50;3.40;99.90
16160;DHT22;8185;57.818;15.224;2023-12-20T03:24:19;3.40;99.90
16160;DHT22;8185;57.818;15.224;2023-12-20T03:26:46;3.40;99.90
16160;DHT22;8185;57.818;15.224;2023-12-20T03:29:13;3.40;99.90
16160;DHT22;8185;57.818;15.224;2023-12-20T03:31:42;3.40;99.90
16160;DHT22;8185;57.818;15.224;2023-12-20T03:34:09;3.40;99.90
16160;DHT22;8185;57.818;15.224;2023-12-20T03:36:37;3.40;99.90
16160;DHT22;8185;57.818;15.224;2023-12-20T03:39:04;3.50;99.90
16160;DHT22;8185;57.818;15.224;2023-12-20T03:41:32;3.40;99.90
16160;DHT22;8185;57.818;15.224;2023-12-20T03:43:59;3.50;99.90
16160;DHT22;8185;57.818;15.224;2023-12-20T03:46:26;3.20;99.90
16160;DHT22;8185;57.818;15.224;2023-12-20T03:48:55;3.40;99.90
16160;DHT22;8185;57.818;15.224;2023-12-20T03:51:22;3.40;99.90
16160;DHT22;8185;57.818;15.224;2023-12-20T03:53:49;3.40;99.90
16160;DHT22;8185;57.818;15.224;2023-12-20T03:56:16;3.40;99.90
16160;DHT22;8185;57.818;15.224;2023-12-20T03:58:43;3.40;99.90
16160;DHT22;8185;57.818;15.224;2023-12-20T04:01:11;3.40;99.90
16160;DHT22;8185;57.818;15.224;2023-12-20T04:03:38;3.40;99.90
16160;DHT22;8185;57.818;15.224;2023-12-20T04:06:07;3.40;99.90
16160;DHT22;8185;57.818;15.224;2023-12-20T04:08:35;3.40;99.90
16160;DHT22;8185;57.818;15.224;2023-12-20T04:11:02;3.40;99.90
16160;DHT22;8185;57.818;15.224;2023-12-20T04:13:30;3.40;99.90
16160;DHT22;8185;57.818;15.224;2023-12-20T04:15:57;3.40;99.90
16160;DHT22;8185;57.818;15.224;2023-12-20T04:18:24;3.40;99.90
16160;DHT22;8185;57.818;15.224;2023-12-20T04:20:52;3.40;99.90
16160;DHT22;8185;57.818;15.224;2023-12-20T04:23:20;3.40;99.90
16160;DHT22;8185;57.818;15.224;2023-12-20T04:25:47;3.30;99.90
16160;DHT22;8185;57.818;15.224;2023-12-20T04:28:14;3.40;99.90
16160;DHT22;8185;57.818;15.224;2023-12-20T04:30:42;3.40;99.90
16160;DHT22;8185;57.818;15.224;2023-12-20T04:33:09;3.40;99.90
16160;DHT22;8185;57.818;15.224;2023-12-20T04:35:36;3.40;99.90
16160;DHT22;8185;57.818;15.224;2023-12-20T04:38:08;3.40;99.90
16160;DHT22;8185;57.818;15.224;2023-12-20T04:40:37;3.30;99.90
16160;DHT22;8185;57.818;15.224;2023-12-20T04:43:05;3.30;99.90
16160;DHT22;8185;57.818;15.224;2023-12-20T04:45:32;3.30;99.90
16160;DHT22;8185;57.818;15.224;2023-12-20T04:48:00;3.20;99.90
16160;DHT22;8185;57.818;15.224;2023-12-20T04:50:28;3.20;99.90
16160;DHT22;8185;57.818;15.224;2023-12-20T04:52:55;3.20;99.90
16160;DHT22;8185;57.818;15.224;2023-12-20T04:55:23;3.20;99.90
16160;DHT22;8185;57.818;15.224;2023-12-20T04:57:51;3.30;99.90
16160;DHT22;8185;57.818;15.224;2023-12-20T05:00:19;3.30;99.90
16160;DHT22;8185;57.818;15.224;2023-12-20T05:02:46;3.30;99.90
16160;DHT22;8185;57.818;15.224;2023-12-20T05:05:13;3.30;99.90
16160;DHT22;8185;57.818;15.224;2023-12-20T05:07:43;3.30;99.90
16160;DHT22;8185;57.818;15.224;2023-12-20T05:10:10;3.30;99.90
16160;DHT22;8185;57.818;15.224;2023-12-20T05:12:38;3.30;99.90
16160;DHT22;8185;57.818;15.224;2023-12-20T05:15:07;3.30;99.90
16160;DHT22;8185;57.818;15.224;2023-12-20T05:17:35;3.30;99.90
16160;DHT22;8185;57.818;15.224;2023-12-20T05:20:03;3.30;99.90
16160;DHT22;8185;57.818;15.224;2023-12-20T05:22:30;3.30;99.90
16160;DHT22;8185;57.818;15.224;2023-12-20T05:24:57;3.30;99.90
16160;DHT22;8185;57.818;15.224;2023-12-20T05:27:25;3.40;99.90
16160;DHT22;8185;57.818;15.224;2023-12-20T05:29:52;3.40;99.90
16160;DHT22;8185;57.818;15.224;2023-12-20T05:32:24;3.30;99.90
16160;DHT22;8185;57.818;15.224;2023-12-20T05:34:52;3.40;99.90
16160;DHT22;8185;57.818;15.224;2023-12-20T05:37:19;3.40;99.90
16160;DHT22;8185;57.818;15.224;2023-12-20T05:39:46;3.40;99.90
16160;DHT22;8185;57.818;15.224;2023-12-20T05:42:13;3.40;99.90
16160;DHT22;8185;57.818;15.224;2023-12-20T05:44:40;3.40;99.90
16160;DHT22;8185;57.818;15.224;2023-12-20T05:47:07;3.40;99.90
16160;DHT22;8185;57.818;15.224;2023-12-20T05:49:36;3.40;99.90
16160;DHT22;8185;57.818;15.224;2023-12-20T05:52:04;3.40;99.90
16160;DHT22;8185;57.818;15.224;2023-12-20T05:54:31;3.40;99.90
16160;DHT22;8185;57.818;15.224;2023-12-20T05:56:58;3.40;99.90
16160;DHT22;8185;57.818;15.224;2023-12-20T05:59:26;3.40;99.90
16160;DHT22;8185;57.818;15.224;2023-12-20T06:01:53;3.40;99.90
16160;DHT22;8185;57.818;15.224;2023-12-20T06:04:21;3.40;99.90
16160;DHT22;8185;57.818;15.224;2023-12-20T06:06:50;3.30;99.90
16160;DHT22;8185;57.818;15.224;2023-12-20T06:09:17;3.30;99.90
16160;DHT22;8185;57.818;15.224;2023-12-20T06:11:44;3.20;99.90
16160;DHT22;8185;57.818;15.224;2023-12-20T06:14:11;3.20;99.90
16160;DHT22;8185;57.818;15.224;2023-12-20T06:16:38;3.20;99.90
16160;DHT22;8185;57.818;15.224;2023-12-20T06:19:05;3.10;99.90
16160;DHT22;8185;57.818;15.224;2023-12-20T06:21:32;3.10;99.90
16160;DHT22;8185;57.818;15.224;2023-12-20T06:24:01;3.10;99.90
16160;DHT22;8185;57.818;15.224;2023-12-20T06:26:28;3.00;99.90
16160;DHT22;8185;57.818;15.224;2023-12-20T06:28:55;3.00;99.90
16160;DHT22;8185;57.818;15.224;2023-12-20T06:31:22;3.00;99.90
16160;DHT22;8185;57.818;15.224;2023-12-20T06:33:49;3.00;99.90
16160;DHT22;8185;57.818;15.224;2023-12-20T06:36:23;2.90;99.90
16160;DHT22;8185;57.818;15.224;2023-12-20T06:38:50;3.00;99.90
16160;DHT22;8185;57.818;15.224;2023-12-20T06:41:18;2.90;99.90
16160;DHT22;8185;57.818;15.224;2023-12-20T06:43:45;2.90;99.90
16160;DHT22;8185;57.818;15.224;2023-12-20T06:46:12;2.90;99.90
16160;DHT22;8185;57.818;15.224;2023-12-20T06:48:39;2.90;99.90
16160;DHT22;8185;57.818;15.224;2023-12-20T06:51:10;2.90;99.90
16160;DHT22;8185;57.818;15.224;2023-12-20T06:53:37;2.80;99.90
16160;DHT22;8185;57.818;15.224;2023-12-20T06:56:04;2.90;99.90
16160;DHT22;8185;57.818;15.224;2023-12-20T06:58:34;2.80;99.90
16160;DHT22;8185;57.818;15.224;2023-12-20T07:01:03;2.90;99.90
16160;DHT22;8185;57.818;15.224;2023-12-20T07:03:31;2.90;99.90
16160;DHT22;8185;57.818;15.224;2023-12-20T07:05:58;2.90;99.90
16160;DHT22;8185;57.818;15.224;2023-12-20T07:08:25;2.90;99.90
16160;DHT22;8185;57.818;15.224;2023-12-20T07:10:53;2.90;99.90
16160;DHT22;8185;57.818;15.224;2023-12-20T07:13:20;2.90;99.90
16160;DHT22;8185;57.818;15.224;2023-12-20T07:15:49;2.90;99.90
16160;DHT22;8185;57.818;15.224;2023-12-20T07:18:17;2.90;99.90
16160;DHT22;8185;57.818;15.224;2023-12-20T07:20:44;2.90;99.90
16160;DHT22;8185;57.818;15.224;2023-12-20T07:23:11;2.90;99.90
16160;DHT22;8185;57.818;15.224;2023-12-20T07:25:38;2.90;99.90
16160;DHT22;8185;57.818;15.224;2023-12-20T07:28:06;2.90;99.90
16160;DHT22;8185;57.818;15.224;2023-12-20T07:30:33;2.90;99.90
16160;DHT22;8185;57.818;15.224;2023-12-20T07:33:01;2.90;99.90
16160;DHT22;8185;57.818;15.224;2023-12-20T07:35:29;2.90;99.90
16160;DHT22;8185;57.818;15.224;2023-12-20T07:37:56;2.80;99.90
16160;DHT22;8185;57.818;15.224;2023-12-20T07:40:24;2.80;99.90
16160;DHT22;8185;57.818;15.224;2023-12-20T07:42:51;2.80;99.90
16160;DHT22;8185;57.818;15.224;2023-12-20T07:45:18;2.80;99.90
16160;DHT22;8185;57.818;15.224;2023-12-20T07:47:46;2.80;99.90
16160;DHT22;8185;57.818;15.224;2023-12-20T07:50:14;2.80;99.90
16160;DHT22;8185;57.818;15.224;2023-12-20T07:52:42;2.80;99.90
16160;DHT22;8185;57.818;15.224;2023-12-20T07:55:09;2.80;99.90
16160;DHT22;8185;57.818;15.224;2023-12-20T07:57:36;2.70;99.90
16160;DHT22;8185;57.818;15.224;2023-12-20T08:00:05;2.80;99.90
16160;DHT22;8185;57.818;15.224;2023-12-20T08:02:32;2.70;99.90
16160;DHT22;8185;57.818;15.224;2023-12-20T08:04:59;2.70;99.90
16160;DHT22;8185;57.818;15.224;2023-12-20T08:07:28;2.70;99.90
16160;DHT22;8185;57.818;15.224;2023-12-20T08:09:55;2.70;99.90
16160;DHT22;8185;57.818;15.224;2023-12-20T08:12:23;2.70;99.90
16160;DHT22;8185;57.818;15.224;2023-12-20T08:14:53;2.70;99.90
16160;DHT22;8185;57.818;15.224;2023-12-20T08:17:20;2.60;99.90
16160;DHT22;8185;57.818;15.224;2023-12-20T08:19:49;2.60;99.90
16160;DHT22;8185;57.818;15.224;2023-12-20T08:22:16;2.60;99.90
16160;DHT22;8185;57.818;15.224;2023-12-20T08:24:45;2.70;99.90
16160;DHT22;8185;57.818;15.224;2023-12-20T08:27:11;2.70;99.90
16160;DHT22;8185;57.818;15.224;2023-12-20T08:29:38;2.70;99.90
16160;DHT22;8185;57.818;15.224;2023-12-20T08:32:05;2.70;99.90
16160;DHT22;8185;57.818;15.224;2023-12-20T08:34:33;2.70;99.90
16160;DHT22;8185;57.818;15.224;2023-12-20T08:37:00;2.70;99.90
16160;DHT22;8185;57.818;15.224;2023-12-20T08:39:27;2.70;99.90
16160;DHT22;8185;57.818;15.224;2023-12-20T08:41:57;2.70;99.90
16160;DHT22;8185;57.818;15.224;2023-12-20T08:44:24;2.80;99.90
16160;DHT22;8185;57.818;15.224;2023-12-20T08:46:51;2.80;99.90
16160;DHT22;8185;57.818;15.224;2023-12-20T08:49:19;2.80;99.90
16160;DHT22;8185;57.818;15.224;2023-12-20T08:51:46;2.80;99.90
16160;DHT22;8185;57.818;15.224;2023-12-20T08:54:13;2.90;99.90
16160;DHT22;8185;57.818;15.224;2023-12-20T08:56:42;2.90;99.90
16160;DHT22;8185;57.818;15.224;2023-12-20T08:59:11;2.90;99.90
16160;DHT22;8185;57.818;15.224;2023-12-20T09:01:39;2.90;99.90
16160;DHT22;8185;57.818;15.224;2023-12-20T09:04:06;2.90;99.90
16160;DHT22;8185;57.818;15.224;2023-12-20T09:06:33;3.00;99.90
16160;DHT22;8185;57.818;15.224;2023-12-20T09:09:00;3.00;99.90
16160;DHT22;8185;57.818;15.224;2023-12-20T09:11:28;3.10;99.90
16160;DHT22;8185;57.818;15.224;2023-12-20T09:13:55;3.10;99.90
16160;DHT22;8185;57.818;15.224;2023-12-20T09:16:24;3.20;99.90
16160;DHT22;8185;57.818;15.224;2023-12-20T09:18:51;3.10;99.90
16160;DHT22;8185;57.818;15.224;2023-12-20T09:21:19;3.20;99.90
16160;DHT22;8185;57.818;15.224;2023-12-20T09:23:46;3.20;99.90
16160;DHT22;8185;57.818;15.224;2023-12-20T09:26:13;3.20;99.90
16160;DHT22;8185;57.818;15.224;2023-12-20T09:28:41;3.20;99.90
16160;DHT22;8185;57.818;15.224;2023-12-20T09:31:08;3.20;99.90
16160;DHT22;8185;57.818;15.224;2023-12-20T09:33:36;3.20;99.90
16160;DHT22;8185;57.818;15.224;2023-12-20T09:36:04;3.30;99.90
16160;DHT22;8185;57.818;15.224;2023-12-20T09:38:32;3.40;99.90
16160;DHT22;8185;57.818;15.224;2023-12-20T09:40:59;3.30;99.90
16160;DHT22;8185;57.818;15.224;2023-12-20T09:43:28;3.30;99.90
16160;DHT22;8185;57.818;15.224;2023-12-20T09:45:59;3.30;99.90
16160;DHT22;8185;57.818;15.224;2023-12-20T09:48:28;3.30;99.90
16160;DHT22;8185;57.818;15.224;2023-12-20T09:50:57;3.20;99.90
16160;DHT22;8185;57.818;15.224;2023-12-20T09:53:25;3.20;99.90
16160;DHT22;8185;57.818;15.224;2023-12-20T09:55:58;3.10;99.90
16160;DHT22;8185;57.818;15.224;2023-12-20T09:58:27;3.00;99.90
16160;DHT22;8185;57.818;15.224;2023-12-20T10:00:55;3.00;99.90
16160;DHT22;8185;57.818;15.224;2023-12-20T10:03:25;3.00;99.90
16160;DHT22;8185;57.818;15.224;2023-12-20T10:05:56;3.00;99.90
16160;DHT22;8185;57.818;15.224;2023-12-20T10:08:24;3.10;99.90
16160;DHT22;8185;57.818;15.224;2023-12-20T10:10:51;3.10;99.90
16160;DHT22;8185;57.818;15.224;2023-12-20T10:13:19;3.10;99.90
16160;DHT22;8185;57.818;15.224;2023-12-20T10:15:46;3.10;99.90
16160;DHT22;8185;57.818;15.224;2023-12-20T10:18:13;3.10;99.90
16160;DHT22;8185;57.818;15.224;2023-12-20T10:20:41;3.10;99.90
16160;DHT22;8185;57.818;15.224;2023-12-20T10:23:10;3.10;99.90
16160;DHT22;8185;57.818;15.224;2023-12-20T10:25:39;3.10;99.90
16160;DHT22;8185;57.818;15.224;2023-12-20T10:28:11;3.10;99.90
16160;DHT22;8185;57.818;15.224;2023-12-20T10:30:39;3.20;99.90
16160;DHT22;8185;57.818;15.224;2023-12-20T10:33:07;3.20;99.90
16160;DHT22;8185;57.818;15.224;2023-12-20T10:35:35;3.20;99.90
16160;DHT22;8185;57.818;15.224;2023-12-20T10:38:04;3.20;99.90
16160;DHT22;8185;57.818;15.224;2023-12-20T10:40:35;3.20;99.90
16160;DHT22;8185;57.818;15.224;2023-12-20T10:43:04;3.20;99.90
16160;DHT22;8185;57.818;15.224;2023-12-20T10:45:32;3.20;99.90
16160;DHT22;8185;57.818;15.224;2023-12-20T10:47:59;3.20;99.90
16160;DHT22;8185;57.818;15.224;2023-12-20T10:50:27;3.20;99.90
16160;DHT22;8185;57.818;15.224;2023-12-20T10:52:55;3.30;99.90
16160;DHT22;8185;57.818;15.224;2023-12-20T10:55:23;3.40;99.90
16160;DHT22;8185;57.818;15.224;2023-12-20T10:57:52;3.80;99.90
16160;DHT22;8185;57.818;15.224;2023-12-20T11:00:20;4.10;99.90
16160;DHT22;8185;57.818;15.224;2023-12-20T11:02:49;4.00;99.90
16160;DHT22;8185;57.818;15.224;2023-12-20T11:05:26;3.80;99.90
16160;DHT22;8185;57.818;15.224;2023-12-20T11:08:00;3.70;99.90
16160;DHT22;8185;57.818;15.224;2023-12-20T11:10:37;3.60;99.90
16160;DHT22;8185;57.818;15.224;2023-12-20T11:13:10;3.60;99.90
16160;DHT22;8185;57.818;15.224;2023-12-20T11:15:41;3.70;99.90
16160;DHT22;8185;57.818;15.224;2023-12-20T11:18:09;3.90;99.90
16160;DHT22;8185;57.818;15.224;2023-12-20T11:20:37;3.70;99.90
16160;DHT22;8185;57.818;15.224;2023-12-20T11:23:06;3.70;99.90
16160;DHT22;8185;57.818;15.224;2023-12-20T11:25:51;3.60;99.90
16160;DHT22;8185;57.818;15.224;2023-12-20T11:28:23;3.50;99.90
16160;DHT22;8185;57.818;15.224;2023-12-20T11:30:52;3.40;99.90
16160;DHT22;8185;57.818;15.224;2023-12-20T11:33:22;3.40;99.90
16160;DHT22;8185;57.818;15.224;2023-12-20T11:35:50;3.40;99.90
16160;DHT22;8185;57.818;15.224;2023-12-20T11:38:20;3.60;99.90
16160;DHT22;8185;57.818;15.224;2023-12-20T11:40:48;3.80;99.90
16160;DHT22;8185;57.818;15.224;2023-12-20T11:43:31;3.80;99.90
16160;DHT22;8185;57.818;15.224;2023-12-20T11:46:03;3.70;99.90
16160;DHT22;8185;57.818;15.224;2023-12-20T11:48:31;3.60;99.90
16160;DHT22;8185;57.818;15.224;2023-12-20T11:50:59;3.40;99.90
16160;DHT22;8185;57.818;15.224;2023-12-20T11:53:26;3.40;99.90
16160;DHT22;8185;57.818;15.224;2023-12-20T11:55:54;3.40;99.90
16160;DHT22;8185;57.818;15.224;2023-12-20T11:58:21;3.40;99.90
16160;DHT22;8185;57.818;15.224;2023-12-20T12:00:50;3.40;99.90
16160;DHT22;8185;57.818;15.224;2023-12-20T12:03:17;3.40;99.90
16160;DHT22;8185;57.818;15.224;2023-12-20T12:05:47;3.40;99.90
16160;DHT22;8185;57.818;15.224;2023-12-20T12:08:15;3.30;99.90
16160;DHT22;8185;57.818;15.224;2023-12-20T12:10:42;3.40;99.90
16160;DHT22;8185;57.818;15.224;2023-12-20T12:13:09;3.40;99.90
16160;DHT22;8185;57.818;15.224;2023-12-20T12:15:37;3.40;99.90
16160;DHT22;8185;57.818;15.224;2023-12-20T12:18:07;3.40;99.90
16160;DHT22;8185;57.818;15.224;2023-12-20T12:20:34;3.30;99.90
16160;DHT22;8185;57.818;15.224;2023-12-20T12:23:03;3.30;99.90
16160;DHT22;8185;57.818;15.224;2023-12-20T12:25:31;3.40;99.90
16160;DHT22;8185;57.818;15.224;2023-12-20T12:27:59;3.30;99.90
16160;DHT22;8185;57.818;15.224;2023-12-20T12:30:26;3.40;99.90
16160;DHT22;8185;57.818;15.224;2023-12-20T12:32:55;3.30;99.90
16160;DHT22;8185;57.818;15.224;2023-12-20T12:35:25;3.20;99.90
16160;DHT22;8185;57.818;15.224;2023-12-20T12:37:52;3.20;99.90
16160;DHT22;8185;57.818;15.224;2023-12-20T12:40:19;3.10;99.90
16160;DHT22;8185;57.818;15.224;2023-12-20T12:42:47;3.10;99.90
16160;DHT22;8185;57.818;15.224;2023-12-20T12:45:14;2.90;99.90
16160;DHT22;8185;57.818;15.224;2023-12-20T12:47:42;2.90;99.90
16160;DHT22;8185;57.818;15.224;2023-12-20T12:50:09;2.80;99.90
16160;DHT22;8185;57.818;15.224;2023-12-20T12:52:38;2.80;99.90
16160;DHT22;8185;57.818;15.224;2023-12-20T12:55:05;2.80;99.90
16160;DHT22;8185;57.818;15.224;2023-12-20T12:57:32;2.80;99.90
16160;DHT22;8185;57.818;15.224;2023-12-20T12:59:59;2.80;99.90
16160;DHT22;8185;57.818;15.224;2023-12-20T13:02:26;2.80;99.90
16160;DHT22;8185;57.818;15.224;2023-12-20T13:04:53;2.80;99.90
16160;DHT22;8185;57.818;15.224;2023-12-20T13:07:21;2.80;99.90
16160;DHT22;8185;57.818;15.224;2023-12-20T13:09:50;2.80;99.90
16160;DHT22;8185;57.818;15.224;2023-12-20T13:12:17;2.80;99.90
16160;DHT22;8185;57.818;15.224;2023-12-20T13:14:44;2.80;99.90
16160;DHT22;8185;57.818;15.224;2023-12-20T13:17:11;2.80;99.90
16160;DHT22;8185;57.818;15.224;2023-12-20T13:19:39;2.80;99.90
16160;DHT22;8185;57.818;15.224;2023-12-20T13:22:06;2.70;99.90
16160;DHT22;8185;57.818;15.224;2023-12-20T13:24:33;2.70;99.90
16160;DHT22;8185;57.818;15.224;2023-12-20T13:27:02;2.70;99.90
16160;DHT22;8185;57.818;15.224;2023-12-20T13:29:30;2.60;99.90
16160;DHT22;8185;57.818;15.224;2023-12-20T13:31:57;2.60;99.90
16160;DHT22;8185;57.818;15.224;2023-12-20T13:34:24;2.70;99.90
16160;DHT22;8185;57.818;15.224;2023-12-20T13:36:51;2.70;99.90
16160;DHT22;8185;57.818;15.224;2023-12-20T13:39:19;2.70;99.90
16160;DHT22;8185;57.818;15.224;2023-12-20T13:41:47;2.70;99.90
16160;DHT22;8185;57.818;15.224;2023-12-20T13:44:15;2.70;99.90
16160;DHT22;8185;57.818;15.224;2023-12-20T13:46:43;2.70;99.90
16160;DHT22;8185;57.818;15.224;2023-12-20T13:49:10;2.70;99.90
16160;DHT22;8185;57.818;15.224;2023-12-20T13:51:37;2.70;99.90
16160;DHT22;8185;57.818;15.224;2023-12-20T13:54:05;2.60;99.90
16160;DHT22;8185;57.818;15.224;2023-12-20T13:56:32;2.50;99.90
16160;DHT22;8185;57.818;15.224;2023-12-20T13:59:00;2.40;99.90
16160;DHT22;8185;57.818;15.224;2023-12-20T14:01:28;2.30;99.90
16160;DHT22;8185;57.818;15.224;2023-12-20T14:03:56;2.30;99.90
16160;DHT22;8185;57.818;15.224;2023-12-20T14:06:23;2.40;99.90
16160;DHT22;8185;57.818;15.224;2023-12-20T14:08:50;2.40;99.90
16160;DHT22;8185;57.818;15.224;2023-12-20T14:11:17;2.40;99.90
16160;DHT22;8185;57.818;15.224;2023-12-20T14:13:45;2.40;99.90
16160;DHT22;8185;57.818;15.224;2023-12-20T14:16:12;2.40;99.90
16160;DHT22;8185;57.818;15.224;2023-12-20T14:18:41;2.40;99.90
16160;DHT22;8185;57.818;15.224;2023-12-20T14:21:08;2.40;99.90
16160;DHT22;8185;57.818;15.224;2023-12-20T14:23:36;2.50;99.90
16160;DHT22;8185;57.818;15.224;2023-12-20T14:26:03;2.60;99.90
16160;DHT22;8185;57.818;15.224;2023-12-20T14:28:30;2.60;99.90
16160;DHT22;8185;57.818;15.224;2023-12-20T14:30:58;2.70;99.90
16160;DHT22;8185;57.818;15.224;2023-12-20T14:33:25;2.70;99.90
16160;DHT22;8185;57.818;15.224;2023-12-20T14:35:55;2.60;99.90
16160;DHT22;8185;57.818;15.224;2023-12-20T14:38:23;2.60;99.90
16160;DHT22;8185;57.818;15.224;2023-12-20T14:40:51;2.60;99.90
16160;DHT22;8185;57.818;15.224;2023-12-20T14:43:18;2.50;99.90
16160;DHT22;8185;57.818;15.224;2023-12-20T14:45:48;2.50;99.90
16160;DHT22;8185;57.818;15.224;2023-12-20T14:48:16;2.50;99.90
16160;DHT22;8185;57.818;15.224;2023-12-20T14:50:44;2.40;99.90
16160;DHT22;8185;57.818;15.224;2023-12-20T14:53:15;2.30;99.90
16160;DHT22;8185;57.818;15.224;2023-12-20T14:55:44;2.30;99.90
16160;DHT22;8185;57.818;15.224;2023-12-20T14:58:12;2.40;99.90
16160;DHT22;8185;57.818;15.224;2023-12-20T15:00:40;2.40;99.90
16160;DHT22;8185;57.818;15.224;2023-12-20T15:03:08;2.30;99.90
16160;DHT22;8185;57.818;15.224;2023-12-20T15:05:35;2.30;99.90
16160;DHT22;8185;57.818;15.224;2023-12-20T15:08:04;2.20;99.90
16160;DHT22;8185;57.818;15.224;2023-12-20T15:10:32;2.20;99.90
16160;DHT22;8185;57.818;15.224;2023-12-20T15:13:00;2.10;99.90
16160;DHT22;8185;57.818;15.224;2023-12-20T15:15:27;2.10;99.90
16160;DHT22;8185;57.818;15.224;2023-12-20T15:17:55;2.10;99.90
16160;DHT22;8185;57.818;15.224;2023-12-20T15:20:22;2.00;99.90
16160;DHT22;8185;57.818;15.224;2023-12-20T15:22:49;2.00;99.90
16160;DHT22;8185;57.818;15.224;2023-12-20T15:25:17;1.90;99.90
16160;DHT22;8185;57.818;15.224;2023-12-20T15:27:49;1.80;99.90
16160;DHT22;8185;57.818;15.224;2023-12-20T15:30:19;1.80;99.90
16160;DHT22;8185;57.818;15.224;2023-12-20T15:32:46;1.70;99.90
16160;DHT22;8185;57.818;15.224;2023-12-20T15:35:13;1.70;99.90
16160;DHT22;8185;57.818;15.224;2023-12-20T15:37:40;1.70;99.90
16160;DHT22;8185;57.818;15.224;2023-12-20T15:40:09;1.70;99.90
16160;DHT22;8185;57.818;15.224;2023-12-20T15:42:37;1.70;99.90
16160;DHT22;8185;57.818;15.224;2023-12-20T15:45:07;1.70;99.90
16160;DHT22;8185;57.818;15.224;2023-12-20T15:47:34;1.70;99.90
16160;DHT22;8185;57.818;15.224;2023-12-20T15:50:03;1.70;99.90